Time;durP1;ratioP1;P1;durP2;ratioP2;P2;SDS_P1;SDS_P2;PMS_P1;PMS_P2;Temp;Humidity;BMP_temperature;BMP_pressure;BME280_temperature;BME280_humidity;BME280_pressure;Samples;Min_cycle;Max_cycle;Signal;HPM_P1;HPM_P2
2019/11/12 00:00:24;;;;;;;21.5;16.7;;;;;;;;;;;;;
2019/11/12 00:02:52;;;;;;;22.5;17.7;;;;;;;;;;;;;
2019/11/12 00:05:19;;;;;;;19.8;16.3;;;;;;;;;;;;;
2019/11/12 00:07:47;;;;;;;19.6;16.7;;;;;;;;;;;;;
2019/11/12 00:10:12;;;;;;;18.3;15.4;;;;;;;;;;;;;
2019/11/12 00:12:35;;;;;;;19.4;15;;;;;;;;;;;;;
2019/11/12 00:15:01;;;;;;;17.5;14.3;;;;;;;;;;;;;
2019/11/12 00:17:28;;;;;;;19.3;14.2;;;;;;;;;;;;;
2019/11/12 00:19:55;;;;;;;16.9;14.4;;;;;;;;;;;;;
2019/11/12 00:22:33;;;;;;;18.6;14.6;;;;;;;;;;;;;
2019/11/12 00:25:15;;;;;;;17.7;14.4;;;;;;;;;;;;;
2019/11/12 00:27:36;;;;;;;17.7;15;;;;;;;;;;;;;
2019/11/12 00:30:00;;;;;;;19;15.1;;;;;;;;;;;;;
2019/11/12 00:32:46;;;;;;;19.7;15.3;;;;;;;;;;;;;
2019/11/12 00:34:57;;;;;;;19.1;15;;;;;;;;;;;;;
2019/11/12 00:37:29;;;;;;;19.5;15.6;;;;;;;;;;;;;
2019/11/12 00:39:55;;;;;;;17.8;15.1;;;;;;;;;;;;;
2019/11/12 00:42:22;;;;;;;19.2;15.6;;;;;;;;;;;;;
2019/11/12 00:45:09;;;;;;;20.3;16.4;;;;;;;;;;;;;
2019/11/12 00:47:12;;;;;;;18.3;16.3;;;;;;;;;;;;;
2019/11/12 00:49:38;;;;;;;18.5;16;;;;;;;;;;;;;
2019/11/12 00:52:03;;;;;;;17.8;15.8;;;;;;;;;;;;;
2019/11/12 00:54:32;;;;;;;20.8;16.2;;;;;;;;;;;;;
2019/11/12 00:56:55;;;;;;;18.6;15.6;;;;;;;;;;;;;
2019/11/12 00:59:22;;;;;;;20.1;17;;;;;;;;;;;;;
2019/11/12 01:01:46;;;;;;;21.1;16.5;;;;;;;;;;;;;
2019/11/12 01:04:22;;;;;;;18.5;16.2;;;;;;;;;;;;;
2019/11/12 01:06:39;;;;;;;20;16.4;;;;;;;;;;;;;
2019/11/12 01:09:05;;;;;;;18.5;16.3;;;;;;;;;;;;;
2019/11/12 01:11:29;;;;;;;19.9;16.6;;;;;;;;;;;;;
2019/11/12 01:13:54;;;;;;;20;16.5;;;;;;;;;;;;;
2019/11/12 01:16:21;;;;;;;19.7;15.8;;;;;;;;;;;;;
2019/11/12 01:21:23;;;;;;;17.8;15.9;;;;;;;;;;;;;
2019/11/12 01:23:46;;;;;;;18.7;15.7;;;;;;;;;;;;;
2019/11/12 01:26:20;;;;;;;18.8;16.4;;;;;;;;;;;;;
2019/11/12 01:28:52;;;;;;;17.9;15.2;;;;;;;;;;;;;
2019/11/12 01:31:23;;;;;;;18.9;15.5;;;;;;;;;;;;;
2019/11/12 01:33:47;;;;;;;18;15;;;;;;;;;;;;;
2019/11/12 01:36:13;;;;;;;18.9;15.2;;;;;;;;;;;;;
2019/11/12 01:38:35;;;;;;;18.3;15;;;;;;;;;;;;;
2019/11/12 01:41:00;;;;;;;17.7;15;;;;;;;;;;;;;
2019/11/12 01:43:27;;;;;;;16.4;14.4;;;;;;;;;;;;;
2019/11/12 01:45:52;;;;;;;17.3;14;;;;;;;;;;;;;
2019/11/12 01:48:18;;;;;;;16.8;14.3;;;;;;;;;;;;;
2019/11/12 01:50:46;;;;;;;15.8;13.7;;;;;;;;;;;;;
2019/11/12 01:53:12;;;;;;;30.4;21.1;;;;;;;;;;;;;
2019/11/12 01:55:36;;;;;;;26.5;19.1;;;;;;;;;;;;;
2019/11/12 01:58:01;;;;;;;16.4;14.3;;;;;;;;;;;;;
2019/11/12 02:00:35;;;;;;;18.1;14.6;;;;;;;;;;;;;
2019/11/12 02:02:54;;;;;;;17.3;14.4;;;;;;;;;;;;;
2019/11/12 02:05:21;;;;;;;17.7;14.6;;;;;;;;;;;;;
2019/11/12 02:07:45;;;;;;;16.8;14.5;;;;;;;;;;;;;
2019/11/12 02:10:33;;;;;;;18.5;14.9;;;;;;;;;;;;;
2019/11/12 02:12:49;;;;;;;15.5;13.9;;;;;;;;;;;;;
2019/11/12 02:15:14;;;;;;;17;14.1;;;;;;;;;;;;;
2019/11/12 02:17:39;;;;;;;16.2;14.1;;;;;;;;;;;;;
2019/11/12 02:20:07;;;;;;;16.2;14;;;;;;;;;;;;;
2019/11/12 02:22:34;;;;;;;15.2;13.6;;;;;;;;;;;;;
2019/11/12 02:24:54;;;;;;;17.3;14.6;;;;;;;;;;;;;
2019/11/12 02:27:21;;;;;;;17.5;14.4;;;;;;;;;;;;;
2019/11/12 02:29:45;;;;;;;15.8;14;;;;;;;;;;;;;
2019/11/12 02:34:47;;;;;;;15.3;13.7;;;;;;;;;;;;;
2019/11/12 02:37:08;;;;;;;15.8;13.4;;;;;;;;;;;;;
2019/11/12 02:39:34;;;;;;;17;13.7;;;;;;;;;;;;;
2019/11/12 02:41:58;;;;;;;15;13.4;;;;;;;;;;;;;
2019/11/12 02:44:24;;;;;;;14.4;12.9;;;;;;;;;;;;;
2019/11/12 02:46:51;;;;;;;15.8;13.1;;;;;;;;;;;;;
2019/11/12 02:49:20;;;;;;;14.6;13;;;;;;;;;;;;;
2019/11/12 02:56:56;;;;;;;16.7;13.4;;;;;;;;;;;;;
2019/11/12 02:59:07;;;;;;;15.7;13.7;;;;;;;;;;;;;
2019/11/12 03:01:30;;;;;;;15.8;13;;;;;;;;;;;;;
2019/11/12 03:03:57;;;;;;;16.2;13.7;;;;;;;;;;;;;
2019/11/12 03:06:39;;;;;;;16.7;14;;;;;;;;;;;;;
2019/11/12 03:09:08;;;;;;;17.4;14.2;;;;;;;;;;;;;
2019/11/12 03:11:31;;;;;;;14.9;13.1;;;;;;;;;;;;;
2019/11/12 03:13:59;;;;;;;14.5;12.8;;;;;;;;;;;;;
2019/11/12 03:16:23;;;;;;;14;12.5;;;;;;;;;;;;;
2019/11/12 03:18:47;;;;;;;16;13.7;;;;;;;;;;;;;
2019/11/12 03:21:13;;;;;;;14.5;12.8;;;;;;;;;;;;;
2019/11/12 03:23:40;;;;;;;14;12.5;;;;;;;;;;;;;
2019/11/12 03:26:05;;;;;;;16;13.1;;;;;;;;;;;;;
2019/11/12 03:28:30;;;;;;;16.4;13.7;;;;;;;;;;;;;
2019/11/12 03:30:55;;;;;;;14.5;12.3;;;;;;;;;;;;;
2019/11/12 03:33:25;;;;;;;15.5;13.4;;;;;;;;;;;;;
2019/11/12 03:35:48;;;;;;;14.6;13;;;;;;;;;;;;;
2019/11/12 03:38:10;;;;;;;15.3;13.1;;;;;;;;;;;;;
2019/11/12 03:40:43;;;;;;;14.7;12.7;;;;;;;;;;;;;
2019/11/12 03:43:06;;;;;;;15.7;12.9;;;;;;;;;;;;;
2019/11/12 03:45:29;;;;;;;14.1;11.9;;;;;;;;;;;;;
2019/11/12 03:47:56;;;;;;;13.4;11.6;;;;;;;;;;;;;
2019/11/12 03:50:19;;;;;;;13.7;12.3;;;;;;;;;;;;;
2019/11/12 03:52:59;;;;;;;14.2;12.7;;;;;;;;;;;;;
2019/11/12 03:55:16;;;;;;;15.8;12.9;;;;;;;;;;;;;
2019/11/12 03:57:39;;;;;;;16.3;13.5;;;;;;;;;;;;;
2019/11/12 04:00:04;;;;;;;15.2;13.6;;;;;;;;;;;;;
2019/11/12 04:02:36;;;;;;;15.6;13.8;;;;;;;3.41;85.8252;930.7361;;;;
2019/11/12 04:05:22;;;;;;;15.4;13.8;;;;;;;3.43;85.78516;930.6658;;;;
2019/11/12 04:07:55;;;;;;;15.7;13.5;;;;;;;3.31;86.1543;930.6446;;;;
2019/11/12 04:10:39;;;;;;;15;13.4;;;;;;;3.27;86.31543;930.5549;;;;
2019/11/12 04:13:23;;;;;;;14.2;12.7;;;;;;;3.26;86.55859;930.5796;;;;
2019/11/12 04:15:41;;;;;;;15.4;13.6;;;;;;;3.19;86.91699;930.5712;;;;
2019/11/12 04:18:14;;;;;;;16;14.3;;;;;;;3.16;87.13574;930.5817;;;;
2019/11/12 04:20:46;;;;;;;18.5;15.9;;;;;;;3.18;87.10547;930.4359;;;;
2019/11/12 04:23:23;;;;;;;15.6;14;;;;;;;3.24;86.90332;930.3416;;;;
2019/11/12 04:25:43;;;;;;;16.6;14.4;;;;;;;3.28;86.77637;930.1434;;;;
2019/11/12 04:28:16;;;;;;;16.3;14.2;;;;;;;3.31;86.54785;930.038;;;;
2019/11/12 04:30:38;;;;;;;19.6;16;;;;;;;3.27;86.94238;930.1196;;;;
2019/11/12 04:33:05;;;;;;;18.4;15.9;;;;;;;3.28;87.05859;930.308;;;;
2019/11/12 04:35:34;;;;;;;17.6;15.4;;;;;;;3.28;87.30566;930.3442;;;;
2019/11/12 04:38:12;;;;;;;18.9;15.5;;;;;;;3.26;87.21191;930.3909;;;;
2019/11/12 04:40:43;;;;;;;21;17.5;;;;;;;3.27;87.16895;930.462;;;;
2019/11/12 04:43:08;;;;;;;19.7;17.3;;;;;;;3.32;87.24512;930.4748;;;;
2019/11/12 04:45:35;;;;;;;20.1;17;;;;;;;3.35;87.15039;930.3678;;;;
2019/11/12 04:48:01;;;;;;;19.6;16.8;;;;;;;3.37;87.04297;930.3367;;;;
2019/11/12 04:50:32;;;;;;;18.4;16.2;;;;;;;3.44;86.58496;930.3748;;;;
2019/11/12 04:52:58;;;;;;;17.6;15.1;;;;;;;3.41;86.47754;930.3962;;;;
2019/11/12 04:55:30;;;;;;;16.4;14.5;;;;;;;3.37;86.68359;930.4036;;;;
2019/11/12 04:58:03;;;;;;;14.6;13.1;;;;;;;3.3;86.75879;930.4738;;;;
2019/11/12 05:00:34;;;;;;;15.1;13.6;;;;;;;3.31;86.87109;930.558;;;;
2019/11/12 05:02:55;;;;;;;15.5;13.9;;;;;;;3.29;86.98145;930.6001;;;;
2019/11/12 05:05:23;;;;;;;16.3;14.6;;;;;;;3.08;87.75684;930.5804;;;;
2019/11/12 05:07:54;;;;;;;16.6;14.8;;;;;;;3.12;88.08008;930.5657;;;;
2019/11/12 05:10:34;;;;;;;17.2;15.3;;;;;;;3;88.65039;930.5511;;;;
2019/11/12 05:13:02;;;;;;;15.2;13.6;;;;;;;3.1;88.4668;930.5313;;;;
2019/11/12 05:15:24;;;;;;;16.5;14.3;;;;;;;3.17;88.125;930.5701;;;;
2019/11/12 05:17:51;;;;;;;17.3;14.3;;;;;;;3.16;87.96387;930.6256;;;;
2019/11/12 05:20:17;;;;;;;14.8;12.9;;;;;;;3.06;88.45996;930.6516;;;;
2019/11/12 05:23:11;;;;;;;16.5;14.7;;;;;;;3.04;88.57031;930.6944;;;;
2019/11/12 05:25:36;;;;;;;14.4;12.9;;;;;;;3.04;88.68066;930.7029;;;;
2019/11/12 05:28:13;;;;;;;13.7;11.7;;;;;;;2.96;89.04688;930.6951;;;;
2019/11/12 05:30:43;;;;;;;14;11.6;;;;;;;3.06;88.7627;930.6799;;;;
2019/11/12 05:33:12;;;;;;;13.7;12;;;;;;;3.03;89.04883;930.6437;;;;
2019/11/12 05:35:34;;;;;;;12.7;11.4;;;;;;;3.07;89.02246;930.4598;;;;
2019/11/12 05:38:04;;;;;;;12.5;11.2;;;;;;;3.15;88.7832;930.4124;;;;
2019/11/12 05:40:41;;;;;;;11.7;10.5;;;;;;;3.04;89.18555;930.397;;;;
2019/11/12 05:43:13;;;;;;;11.5;10.3;;;;;;;3.05;89.36816;930.3306;;;;
2019/11/12 05:45:42;;;;;;;12.2;10.9;;;;;;;3.01;89.7627;930.3666;;;;
2019/11/12 05:48:13;;;;;;;10.8;9.7;;;;;;;2.96;90.0791;930.3297;;;;
2019/11/12 05:50:41;;;;;;;12.6;11.3;;;;;;;2.98;89.98145;930.4205;;;;
2019/11/12 05:53:08;;;;;;;13.6;11.7;;;;;;;3.06;90.05469;930.5424;;;;
2019/11/12 05:55:37;;;;;;;12.2;11;;;;;;;3.15;89.71289;930.5453;;;;
2019/11/12 05:58:02;;;;;;;12.5;11.2;;;;;;;3.21;89.32227;930.5848;;;;
2019/11/12 06:00:32;;;;;;;11.5;10.3;;;;;;;3.26;89.10742;930.5142;;;;
2019/11/12 06:03:13;;;;;;;10.6;9.5;;;;;;;3.31;88.73535;930.6067;;;;
2019/11/12 06:05:42;;;;;;;10.5;9.3;;;;;;;3.44;87.95508;930.5463;;;;
2019/11/12 06:08:29;;;;;;;10.4;9.3;;;;;;;3.43;88.16602;930.606;;;;
2019/11/12 06:11:04;;;;;;;10.6;9.5;;;;;;;3.46;87.79199;930.617;;;;
2019/11/12 06:13:31;;;;;;;10.1;9;;;;;;;3.53;87.44531;930.7153;;;;
2019/11/12 06:15:58;;;;;;;9.5;8.6;;;;;;;3.45;87.41895;930.6065;;;;
2019/11/12 06:18:37;;;;;;;12.8;10.4;;;;;;;3.39;88.0918;930.7402;;;;
2019/11/12 06:21:00;;;;;;;23.5;16.4;;;;;;;3.23;89.29004;930.8124;;;;
2019/11/12 06:23:32;;;;;;;20.4;15.3;;;;;;;3.36;88.86035;930.8394;;;;
2019/11/12 06:26:00;;;;;;;21.1;16.5;;;;;;;3.42;88.71484;930.8834;;;;
2019/11/12 06:28:23;;;;;;;28.2;21.8;;;;;;;3.45;88.29492;930.8354;;;;
2019/11/12 06:31:11;;;;;;;22.1;16.4;;;;;;;3.53;87.92871;930.8027;;;;
2019/11/12 06:33:31;;;;;;;19.2;15.7;;;;;;;3.6;87.87793;930.8984;;;;
2019/11/12 06:36:12;;;;;;;20.2;15.6;;;;;;;3.65;87.58398;930.8649;;;;
2019/11/12 06:38:26;;;;;;;17.2;15;;;;;;;3.69;87.19824;930.8232;;;;
2019/11/12 06:40:53;;;;;;;15.4;13.2;;;;;;;3.7;86.9209;930.8124;;;;
2019/11/12 06:43:23;;;;;;;15.8;13.5;;;;;;;3.53;87.95117;930.8625;;;;
2019/11/12 06:46:21;;;;;;;18.2;16.5;;;;;;;3.54;88.16602;930.8973;;;;
2019/11/12 06:48:50;;;;;;;13.7;12.2;;;;;;;3.59;88.10059;930.8538;;;;
2019/11/12 06:51:23;;;;;;;16.1;14.4;;;;;;;3.69;87.53516;930.9106;;;;
2019/11/12 06:55:19;;;;;;;16.1;13.2;;;;;;;3.73;87.61133;930.9146;;;;
2019/11/12 06:57:41;;;;;;;11.4;10.2;;;;;;;3.63;87.15137;930.843;;;;
2019/11/12 07:00:15;;;;;;;11.4;10.1;;;;;;;3.59;87.40234;930.8411;;;;
2019/11/12 07:02:50;;;;;;;11;9.5;;;;;;;3.61;87.19238;930.7316;;;;
2019/11/12 07:05:22;;;;;;;10.1;9;;;;;;;3.46;87.83691;930.7059;;;;
2019/11/12 07:07:43;;;;;;;13.4;9.9;;;;;;;3.52;88.10645;930.7852;;;;
2019/11/12 07:12:40;;;;;;;9.2;8.3;;;;;;;3.57;87.6123;930.7469;;;;
2019/11/12 07:15:05;;;;;;;12;9.2;;;;;;;3.62;87.91504;930.7941;;;;
2019/11/12 07:17:38;;;;;;;12;9.8;;;;;;;3.72;87.82129;930.7766;;;;
2019/11/12 07:20:08;;;;;;;17.1;13.6;;;;;;;3.85;87.16406;930.7736;;;;
2019/11/12 07:22:36;;;;;;;20.2;13.5;;;;;;;3.92;86.77148;930.7254;;;;
2019/11/12 07:25:11;;;;;;;21.9;17.5;;;;;;;3.96;87.04004;930.7681;;;;
2019/11/12 07:27:42;;;;;;;20.7;17.8;;;;;;;3.99;87.42773;930.7349;;;;
2019/11/12 07:30:11;;;;;;;16;13.8;;;;;;;4.11;86.50879;930.7133;;;;
2019/11/12 07:32:40;;;;;;;16.1;13.3;;;;;;;4.12;86.31738;930.6686;;;;
2019/11/12 07:35:21;;;;;;;16.6;14.4;;;;;;;4.1;86.05469;930.6956;;;;
2019/11/12 07:38:27;;;;;;;13.9;12.4;;;;;;;4.03;86.17773;930.7407;;;;
2019/11/12 07:40:52;;;;;;;12.1;10;;;;;;;4.04;85.97656;930.7111;;;;
2019/11/12 07:43:37;;;;;;;29.6;18.3;;;;;;;4.07;86.00684;930.6424;;;;
2019/11/12 07:46:09;;;;;;;13.4;9.9;;;;;;;4.08;85.79492;930.6395;;;;
2019/11/12 07:49:27;;;;;;;11;8.7;;;;;;;4.09;85.6709;930.5822;;;;
2019/11/12 07:52:27;;;;;;;9.2;8.2;;;;;;;4.05;86.26172;930.6089;;;;
2019/11/12 07:54:43;;;;;;;20.8;14.6;;;;;;;4.16;87.0918;930.541;;;;
2019/11/12 07:57:16;;;;;;;10.6;8;;;;;;;4.19;86.00586;930.5329;;;;
2019/11/12 07:59:47;;;;;;;10;8.1;;;;;;;4.18;86.34375;930.6108;;;;
2019/11/12 08:02:22;;;;;;;9.5;7.5;;;;;;;4.1;86.0791;930.6194;;;;
2019/11/12 08:04:57;;;;;;;9.9;7;;;;;;;3.98;87.10156;930.6772;;;;
2019/11/12 08:07:24;;;;;;;10.4;7.5;;;;;;;4.09;86.75098;930.6688;;;;
2019/11/12 08:09:51;;;;;;;10.1;7.5;;;;;;;4.23;86.95801;930.6506;;;;
2019/11/12 08:12:25;;;;;;;10.9;7.8;;;;;;;4.37;86.33496;930.5723;;;;
2019/11/12 08:14:50;;;;;;;9.6;8.6;;;;;;;4.34;85.59766;930.6458;;;;
2019/11/12 08:17:25;;;;;;;12.4;9.7;;;;;;;4.49;85.86523;930.5837;;;;
2019/11/12 08:20:01;;;;;;;10.1;7.3;;;;;;;4.29;85.16113;930.4958;;;;
2019/11/12 08:22:34;;;;;;;10.5;8.1;;;;;;;4.36;86.46973;930.5099;;;;
2019/11/12 08:25:05;;;;;;;10.1;8;;;;;;;4.61;85.78711;930.5641;;;;
2019/11/12 08:27:50;;;;;;;10.6;7.7;;;;;;;4.84;84.71973;930.4662;;;;
2019/11/12 08:30:20;;;;;;;17.9;10.2;;;;;;;5.01;83.33105;930.4751;;;;
2019/11/12 08:32:48;;;;;;;13.8;8.8;;;;;;;4.98;83.40527;930.4489;;;;
2019/11/12 08:35:15;;;;;;;13.9;8.5;;;;;;;;;;;;;
2019/11/12 08:37:39;;;;;;;13.5;9.6;;;;;;;;;;;;;
2019/11/12 08:40:02;;;;;;;10.6;7.8;;;;;;;;;;;;;
2019/11/12 08:42:31;;;;;;;11.3;8.6;;;;;;;;;;;;;
2019/11/12 08:45:13;;;;;;;9.1;8.1;;;;;;;;;;;;;
2019/11/12 08:47:38;;;;;;;10.8;8.4;;;;;;;;;;;;;
2019/11/12 08:50:04;;;;;;;12.1;8.8;;;;;;;;;;;;;
2019/11/12 08:52:27;;;;;;;11.8;8.6;;;;;;;;;;;;;
2019/11/12 08:54:54;;;;;;;10.2;8.1;;;;;;;;;;;;;
2019/11/12 08:57:18;;;;;;;10.7;7.3;;;;;;;;;;;;;
2019/11/12 08:59:44;;;;;;;7.4;6.6;;;;;;;;;;;;;
2019/11/12 09:02:11;;;;;;;7.6;6.7;;;;;;;;;;;;;
2019/11/12 09:04:39;;;;;;;10.4;6.3;;;;;;;;;;;;;
2019/11/12 09:07:05;;;;;;;8.1;6.2;;;;;;;;;;;;;
2019/11/12 09:09:38;;;;;;;8.1;7;;;;;;;;;;;;;
2019/11/12 09:11:59;;;;;;;10.6;8.2;;;;;;;;;;;;;
2019/11/12 09:14:23;;;;;;;12.4;9;;;;;;;;;;;;;
2019/11/12 09:16:50;;;;;;;9.8;8.5;;;;;;;;;;;;;
2019/11/12 09:19:15;;;;;;;14.5;10.8;;;;;;;;;;;;;
2019/11/12 09:21:39;;;;;;;10.8;8.6;;;;;;;;;;;;;
2019/11/12 09:24:09;;;;;;;10.9;8.2;;;;;;;;;;;;;
2019/11/12 09:26:33;;;;;;;8;6.5;;;;;;;;;;;;;
2019/11/12 09:29:13;;;;;;;7.4;6;;;;;;;;;;;;;
2019/11/12 09:33:52;;;;;;;6.1;5.5;;;;;;;;;;;;;
2019/11/12 09:36:24;;;;;;;6.8;5.5;;;;;;;;;;;;;
2019/11/12 09:38:48;;;;;;;5.8;4.9;;;;;;;;;;;;;
2019/11/12 09:41:17;;;;;;;4.4;4;;;;;;;;;;;;;
2019/11/12 09:43:44;;;;;;;4.6;3.6;;;;;;;;;;;;;
2019/11/12 09:46:05;;;;;;;3.1;2.7;;;;;;;;;;;;;
2019/11/12 09:48:47;;;;;;;4.7;3.4;;;;;;;;;;;;;
2019/11/12 09:50:59;;;;;;;3.5;2.9;;;;;;;;;;;;;
2019/11/12 09:53:23;;;;;;;3;2.6;;;;;;;;;;;;;
2019/11/12 09:55:47;;;;;;;3.3;2.8;;;;;;;;;;;;;
2019/11/12 09:58:16;;;;;;;3.2;2.2;;;;;;;;;;;;;
2019/11/12 10:00:41;;;;;;;2.9;2.4;;;;;;;;;;;;;
2019/11/12 10:03:06;;;;;;;3.7;2.9;;;;;;;;;;;;;
2019/11/12 10:05:32;;;;;;;4.4;2.8;;;;;;;;;;;;;
2019/11/12 10:07:59;;;;;;;3.6;2.6;;;;;;;;;;;;;
2019/11/12 10:10:33;;;;;;;4.6;2.6;;;;;;;;;;;;;
2019/11/12 10:12:51;;;;;;;2.2;1.9;;;;;;;;;;;;;
2019/11/12 10:15:16;;;;;;;3.1;2.1;;;;;;;;;;;;;
2019/11/12 10:17:41;;;;;;;6.8;4.2;;;;;;;;;;;;;
2019/11/12 10:20:09;;;;;;;4.5;2.7;;;;;;;;;;;;;
2019/11/12 10:22:32;;;;;;;4.3;3.3;;;;;;;;;;;;;
2019/11/12 10:24:57;;;;;;;3.9;2.8;;;;;;;;;;;;;
2019/11/12 10:27:22;;;;;;;3.2;2.4;;;;;;;;;;;;;
2019/11/12 10:29:48;;;;;;;5.6;3.8;;;;;;;;;;;;;
2019/11/12 10:32:13;;;;;;;4.1;2.9;;;;;;;;;;;;;
2019/11/12 10:34:36;;;;;;;3.9;2.5;;;;;;;;;;;;;
2019/11/12 10:37:02;;;;;;;1.5;1.2;;;;;;;;;;;;;
2019/11/12 10:39:27;;;;;;;1.7;1;;;;;;;;;;;;;
2019/11/12 10:42:04;;;;;;;1.5;1.2;;;;;;;;;;;;;
2019/11/12 10:44:19;;;;;;;2.7;1.7;;;;;;;;;;;;;
2019/11/12 10:46:44;;;;;;;2;1.8;;;;;;;;;;;;;
2019/11/12 10:49:13;;;;;;;2.7;1.6;;;;;;;;;;;;;
2019/11/12 10:51:36;;;;;;;3.3;1.6;;;;;;;;;;;;;
2019/11/12 10:54:01;;;;;;;2.1;1.6;;;;;;;;;;;;;
2019/11/12 10:56:26;;;;;;;2.2;1.6;;;;;;;;;;;;;
2019/11/12 10:58:53;;;;;;;1.6;1.4;;;;;;;;;;;;;
2019/11/12 11:01:19;;;;;;;2.4;1.7;;;;;;;;;;;;;
2019/11/12 11:03:44;;;;;;;2.1;1.8;;;;;;;;;;;;;
2019/11/12 11:06:13;;;;;;;3.1;2.3;;;;;;;;;;;;;
2019/11/12 11:08:37;;;;;;;3.6;2.4;;;;;;;;;;;;;
2019/11/12 11:11:02;;;;;;;3.3;2.8;;;;;;;;;;;;;
2019/11/12 11:13:26;;;;;;;3.9;2.8;;;;;;;;;;;;;
2019/11/12 11:16:14;;;;;;;4.3;2.8;;;;;;;;;;;;;
2019/11/12 11:18:30;;;;;;;4.6;2.8;;;;;;;;;;;;;
2019/11/12 11:20:57;;;;;;;5.9;3.1;;;;;;;;;;;;;
2019/11/12 11:23:46;;;;;;;3.9;3.2;;;;;;;;;;;;;
2019/11/12 11:25:45;;;;;;;4.6;3.2;;;;;;;;;;;;;
2019/11/12 11:28:15;;;;;;;3.7;3.3;;;;;;;;;;;;;
2019/11/12 11:30:40;;;;;;;4.6;2.9;;;;;;;;;;;;;
2019/11/12 11:33:08;;;;;;;4;2.9;;;;;;;;;;;;;
2019/11/12 11:35:29;;;;;;;3.5;2.7;;;;;;;;;;;;;
2019/11/12 11:38:13;;;;;;;4.2;3.1;;;;;;;;;;;;;
2019/11/12 11:40:21;;;;;;;3.6;3;;;;;;;;;;;;;
2019/11/12 11:42:46;;;;;;;3.6;2.8;;;;;;;;;;;;;
2019/11/12 11:45:13;;;;;;;4.3;3.1;;;;;;;;;;;;;
2019/11/12 11:50:03;;;;;;;3.4;2.7;;;;;;;;;;;;;
2019/11/12 11:52:30;;;;;;;3.1;2.6;;;;;;;;;;;;;
2019/11/12 11:54:59;;;;;;;3.8;2.9;;;;;;;;;;;;;
2019/11/12 11:57:25;;;;;;;2.9;2.6;;;;;;;;;;;;;
2019/11/12 11:59:55;;;;;;;3.1;2.8;;;;;;;;;;;;;
2019/11/12 12:02:20;;;;;;;3.3;2.9;;;;;;;;;;;;;
2019/11/12 12:04:44;;;;;;;3.2;2.8;;;;;;;;;;;;;
2019/11/12 12:07:12;;;;;;;3.3;2.7;;;;;;;;;;;;;
2019/11/12 12:09:35;;;;;;;4.1;2.8;;;;;;;;;;;;;
2019/11/12 12:12:00;;;;;;;3.5;2.8;;;;;;;;;;;;;
2019/11/12 12:14:24;;;;;;;4.5;3.2;;;;;;;;;;;;;
2019/11/12 12:17:13;;;;;;;3.8;3.1;;;;;;;;;;;;;
2019/11/12 12:19:23;;;;;;;4.1;3.2;;;;;;;;;;;;;
2019/11/12 12:21:41;;;;;;;4.4;3.4;;;;;;;;;;;;;
2019/11/12 12:24:15;;;;;;;6.5;3.8;;;;;;;;;;;;;
2019/11/12 12:26:41;;;;;;;4;3.4;;;;;;;;;;;;;
2019/11/12 12:29:08;;;;;;;4.8;3.5;;;;;;;;;;;;;
2019/11/12 12:31:33;;;;;;;5;3.4;;;;;;;;;;;;;
2019/11/12 12:34:00;;;;;;;4.5;3.4;;;;;;;;;;;;;
2019/11/12 12:36:25;;;;;;;4.8;3.5;;;;;;;;;;;;;
2019/11/12 12:38:50;;;;;;;4.9;3.8;;;;;;;;;;;;;
2019/11/12 12:41:14;;;;;;;6;4.2;;;;;;;;;;;;;
2019/11/12 12:43:42;;;;;;;6.2;4.8;;;;;;;;;;;;;
2019/11/12 12:46:09;;;;;;;8.5;4.6;;;;;;;;;;;;;
2019/11/12 12:48:30;;;;;;;7.5;4.9;;;;;;;;;;;;;
2019/11/12 12:50:55;;;;;;;6.3;4.7;;;;;;;;;;;;;
2019/11/12 12:53:22;;;;;;;5.2;4;;;;;;;;;;;;;
2019/11/12 12:55:45;;;;;;;4.9;3.1;;;;;;;;;;;;;
2019/11/12 12:58:11;;;;;;;9.8;6.3;;;;;;;;;;;;;
2019/11/12 13:00:36;;;;;;;5.4;3.4;;;;;;;;;;;;;
2019/11/12 13:03:04;;;;;;;5;3.1;;;;;;;;;;;;;
2019/11/12 13:05:31;;;;;;;5.7;3.7;;;;;;;;;;;;;
2019/11/12 13:07:52;;;;;;;3.2;2.3;;;;;;;;;;;;;
2019/11/12 13:10:17;;;;;;;3.8;2.7;;;;;;;;;;;;;
2019/11/12 13:12:47;;;;;;;4.2;2.8;;;;;;;;;;;;;
2019/11/12 13:15:11;;;;;;;4.5;2.7;;;;;;;;;;;;;
2019/11/12 13:17:54;;;;;;;5.6;3.5;;;;;;;;;;;;;
2019/11/12 13:20:03;;;;;;;7.5;4.6;;;;;;;;;;;;;
2019/11/12 13:22:28;;;;;;;9;5.3;;;;;;;;;;;;;
2019/11/12 13:24:53;;;;;;;9;5.9;;;;;;;;;;;;;
2019/11/12 13:27:22;;;;;;;9.6;5.8;;;;;;;;;;;;;
2019/11/12 13:29:44;;;;;;;6.8;4.7;;;;;;;;;;;;;
2019/11/12 13:32:19;;;;;;;6.1;4;;;;;;;;;;;;;
2019/11/12 13:34:43;;;;;;;5.8;3.7;;;;;;;;;;;;;
2019/11/12 13:37:08;;;;;;;6.6;3.6;;;;;;;;;;;;;
2019/11/12 13:39:35;;;;;;;4.6;3.2;;;;;;;;;;;;;
2019/11/12 13:41:59;;;;;;;5.2;3.3;;;;;;;;;;;;;
2019/11/12 13:44:22;;;;;;;4.8;3.4;;;;;;;;;;;;;
2019/11/12 13:46:47;;;;;;;5.3;3.7;;;;;;;;;;;;;
2019/11/12 13:49:19;;;;;;;8;5.6;;;;;;;;;;;;;
2019/11/12 13:51:41;;;;;;;12;6.3;;;;;;;;;;;;;
2019/11/12 13:54:06;;;;;;;9;5.6;;;;;;;;;;;;;
2019/11/12 13:56:35;;;;;;;11.9;10.7;;;;;;;;;;;;;
2019/11/12 13:58:56;;;;;;;13.4;11;;;;;;;;;;;;;
2019/11/12 14:01:21;;;;;;;9.2;8.2;;;;;;;;;;;;;
2019/11/12 14:03:46;;;;;;;9.9;8.9;;;;;;;;;;;;;
2019/11/12 14:06:11;;;;;;;9.2;8.3;;;;;;;;;;;;;
2019/11/12 14:08:37;;;;;;;8.6;7.2;;;;;;;;;;;;;
2019/11/12 14:11:01;;;;;;;9.2;7.2;;;;;;;;;;;;;
2019/11/12 14:13:27;;;;;;;7.5;5.8;;;;;;;;;;;;;
2019/11/12 14:15:53;;;;;;;8.2;5.1;;;;;;;;;;;;;
2019/11/12 14:18:21;;;;;;;8.5;6;;;;;;;;;;;;;
2019/11/12 14:20:44;;;;;;;9.1;6.2;;;;;;;;;;;;;
2019/11/12 14:23:11;;;;;;;8.8;6.5;;;;;;;;;;;;;
2019/11/12 14:25:39;;;;;;;8.5;7.2;;;;;;;;;;;;;
2019/11/12 14:28:00;;;;;;;10.6;7.4;;;;;;;;;;;;;
2019/11/12 14:30:27;;;;;;;9.1;7.1;;;;;;;;;;;;;
2019/11/12 14:32:53;;;;;;;7.4;5.7;;;;;;;;;;;;;
2019/11/12 14:35:18;;;;;;;7.8;5.3;;;;;;;;;;;;;
2019/11/12 14:37:44;;;;;;;7.6;4.3;;;;;;;;;;;;;
2019/11/12 14:40:11;;;;;;;7.3;4.9;;;;;;;;;;;;;
2019/11/12 14:42:36;;;;;;;7.2;5.8;;;;;;;;;;;;;
2019/11/12 14:45:00;;;;;;;8.9;6.2;;;;;;;;;;;;;
2019/11/12 14:47:25;;;;;;;8.4;6.5;;;;;;;;;;;;;
2019/11/12 14:49:54;;;;;;;8.3;6.2;;;;;;;;;;;;;
2019/11/12 14:52:17;;;;;;;11.4;9.1;;;;;;;;;;;;;
2019/11/12 14:54:46;;;;;;;6.7;5.3;;;;;;;;;;;;;
2019/11/12 14:57:10;;;;;;;5.5;4.7;;;;;;;;;;;;;
2019/11/12 14:59:36;;;;;;;3.4;2.5;;;;;;;;;;;;;
2019/11/12 15:02:02;;;;;;;4.2;2.1;;;;;;;;;;;;;
2019/11/12 15:04:29;;;;;;;3.1;2.1;;;;;;;;;;;;;
2019/11/12 15:06:53;;;;;;;5.1;2.2;;;;;;;;;;;;;
2019/11/12 15:09:17;;;;;;;6.1;2.2;;;;;;;;;;;;;
2019/11/12 15:11:47;;;;;;;10.2;6.9;;;;;;;;;;;;;
2019/11/12 15:14:14;;;;;;;8.1;4.6;;;;;;;;;;;;;
2019/11/12 15:16:41;;;;;;;4.1;3.4;;;;;;;;;;;;;
2019/11/12 15:19:06;;;;;;;3.7;2.9;;;;;;;;;;;;;
2019/11/12 15:21:31;;;;;;;4.2;3;;;;;;;;;;;;;
2019/11/12 15:23:56;;;;;;;6.1;2.5;;;;;;;;;;;;;
2019/11/12 15:26:23;;;;;;;4.2;1.8;;;;;;;;;;;;;
2019/11/12 15:28:49;;;;;;;6;2.1;;;;;;;;;;;;;
2019/11/12 15:31:14;;;;;;;3.8;1.8;;;;;;;;;;;;;
2019/11/12 15:33:43;;;;;;;7.3;2.2;;;;;;;;;;;;;
2019/11/12 15:36:05;;;;;;;3.7;1.7;;;;;;;;;;;;;
2019/11/12 15:38:30;;;;;;;4.8;1.9;;;;;;;;;;;;;
2019/11/12 15:41:03;;;;;;;4.5;1.9;;;;;;;;;;;;;
2019/11/12 15:43:24;;;;;;;5.8;2.1;;;;;;;;;;;;;
2019/11/12 15:45:50;;;;;;;4.6;2.7;;;;;;;;;;;;;
2019/11/12 15:48:14;;;;;;;4.2;2.6;;;;;;;;;;;;;
2019/11/12 15:50:42;;;;;;;8.7;7.4;;;;;;;;;;;;;
2019/11/12 15:53:07;;;;;;;8;5.4;;;;;;;;;;;;;
2019/11/12 15:55:31;;;;;;;7.5;4.8;;;;;;;;;;;;;
2019/11/12 15:58:01;;;;;;;7.2;4.9;;;;;;;;;;;;;
2019/11/12 16:00:22;;;;;;;7.3;5.7;;;;;;;;;;;;;
2019/11/12 16:02:48;;;;;;;5.3;3.9;;;;;;;;;;;;;
2019/11/12 16:05:16;;;;;;;7.1;4.2;;;;;;;;;;;;;
2019/11/12 16:07:43;;;;;;;4.5;3.4;;;;;;;;;;;;;
2019/11/12 16:10:10;;;;;;;2.3;2;;;;;;;;;;;;;
2019/11/12 16:12:37;;;;;;;4.6;2.5;;;;;;;;;;;;;
2019/11/12 16:15:15;;;;;;;2.8;2.2;;;;;;;;;;;;;
2019/11/12 16:17:53;;;;;;;4.3;2.3;;;;;;;;;;;;;
2019/11/12 16:20:20;;;;;;;5;2.1;;;;;;;;;;;;;
2019/11/12 16:22:50;;;;;;;3.6;2.5;;;;;;;;;;;;;
2019/11/12 16:25:27;;;;;;;4.9;3.9;;;;;;;;;;;;;
2019/11/12 16:27:50;;;;;;;5.3;4.4;;;;;;;;;;;;;
2019/11/12 16:30:43;;;;;;;5.4;4.3;;;;;;;;;;;;;
2019/11/12 16:32:50;;;;;;;7;5.5;;;;;;;;;;;;;
2019/11/12 16:35:25;;;;;;;7.2;5.5;;;;;;;;;;;;;
2019/11/12 16:37:56;;;;;;;35.4;32.3;;;;;;;;;;;;;
2019/11/12 16:40:32;;;;;;;12.6;11.3;;;;;;;;;;;;;
2019/11/12 16:43:12;;;;;;;12.8;10.6;;;;;;;;;;;;;
2019/11/12 16:45:38;;;;;;;14.3;11.7;;;;;;;;;;;;;
2019/11/12 16:48:10;;;;;;;14.7;11.5;;;;;;;;;;;;;
2019/11/12 16:50:42;;;;;;;14.3;10.9;;;;;;;;;;;;;
2019/11/12 16:53:09;;;;;;;13.1;10.1;;;;;;;;;;;;;
2019/11/12 16:55:40;;;;;;;11;8.5;;;;;;;;;;;;;
2019/11/12 16:58:10;;;;;;;12.6;9.5;;;;;;;;;;;;;
2019/11/12 17:00:43;;;;;;;13.1;10.9;;;;;;;;;;;;;
2019/11/12 17:03:28;;;;;;;16.2;11.7;;;;;;;;;;;;;
2019/11/12 17:05:43;;;;;;;17.2;12.6;;;;;;;;;;;;;
2019/11/12 17:08:15;;;;;;;16.4;12.4;;;;;;;;;;;;;
2019/11/12 17:10:55;;;;;;;17;12.6;;;;;;;;;;;;;
2019/11/12 17:13:25;;;;;;;18.5;14.1;;;;;;;;;;;;;
2019/11/12 17:15:50;;;;;;;18.4;12.4;;;;;;;;;;;;;
2019/11/12 17:18:22;;;;;;;12.9;9.8;;;;;;;;;;;;;
2019/11/12 17:20:55;;;;;;;6;4;;;;;;;;;;;;;
2019/11/12 17:23:22;;;;;;;8.5;7.1;;;;;;;;;;;;;
2019/11/12 17:25:58;;;;;;;8.5;7.5;;;;;;;;;;;;;
2019/11/12 17:31:08;;;;;;;29.2;21;;;;;;;;;;;;;
2019/11/12 17:33:33;;;;;;;33;24.9;;;;;;;;;;;;;
2019/11/12 17:36:04;;;;;;;14.9;12.5;;;;;;;;;;;;;
2019/11/12 17:38:36;;;;;;;7.5;6.2;;;;;;;;;;;;;
2019/11/12 17:41:09;;;;;;;8.6;7.7;;;;;;;;;;;;;
2019/11/12 17:43:40;;;;;;;10.8;8.5;;;;;;;;;;;;;
2019/11/12 17:46:05;;;;;;;7.8;5.9;;;;;;;;;;;;;
2019/11/12 17:48:35;;;;;;;11.2;8.2;;;;;;;;;;;;;
2019/11/12 17:51:01;;;;;;;15.3;11.8;;;;;;;;;;;;;
2019/11/12 17:53:32;;;;;;;7.3;5.5;;;;;;;;;;;;;
2019/11/12 17:55:56;;;;;;;6.3;5.4;;;;;;;;;;;;;
2019/11/12 17:58:25;;;;;;;7.8;6.9;;;;;;;;;;;;;
2019/11/12 18:00:49;;;;;;;6.4;4.3;;;;;;;;;;;;;
2019/11/12 18:03:12;;;;;;;5.1;3.7;;;;;;;;;;;;;
2019/11/12 18:05:48;;;;;;;6.7;4.6;;;;;;;;;;;;;
2019/11/12 18:12:56;;;;;;;7;5.5;;;;;;;;;;;;;
2019/11/12 18:15:20;;;;;;;5.4;3.6;;;;;;;;;;;;;
2019/11/12 18:17:51;;;;;;;4.9;3.2;;;;;;;;;;;;;
2019/11/12 18:20:10;;;;;;;4;2.7;;;;;;;;;;;;;
2019/11/12 18:22:37;;;;;;;5.3;3.4;;;;;;;;;;;;;
2019/11/12 18:25:03;;;;;;;7.5;5.3;;;;;;;;;;;;;
2019/11/12 18:27:31;;;;;;;8.7;7.1;;;;;;;;;;;;;
2019/11/12 18:29:54;;;;;;;7.7;6;;;;;;;;;;;;;
2019/11/12 18:32:20;;;;;;;7;5.2;;;;;;;;;;;;;
2019/11/12 18:34:50;;;;;;;9;6.3;;;;;;;;;;;;;
2019/11/12 18:37:10;;;;;;;10.9;7.1;;;;;;;;;;;;;
2019/11/12 18:39:37;;;;;;;10.6;8.2;;;;;;;;;;;;;
2019/11/12 18:42:04;;;;;;;6.8;4.9;;;;;;;;;;;;;
2019/11/12 18:44:28;;;;;;;5.5;4.5;;;;;;;;;;;;;
2019/11/12 18:47:21;;;;;;;5;4;;;;;;;;;;;;;
2019/11/12 18:49:34;;;;;;;12.6;8.2;;;;;;;;;;;;;
2019/11/12 18:52:06;;;;;;;12.8;9;;;;;;;;;;;;;
2019/11/12 18:54:28;;;;;;;11.6;7.2;;;;;;;;;;;;;
2019/11/12 18:57:00;;;;;;;8.1;5.7;;;;;;;;;;;;;
2019/11/12 18:59:34;;;;;;;7.9;5.5;;;;;;;;;;;;;
2019/11/12 19:04:37;;;;;;;8.5;6.1;;;;;;;;;;;;;
2019/11/12 19:06:49;;;;;;;7.6;5.1;;;;;;;;;;;;;
2019/11/12 19:09:14;;;;;;;8.4;5.9;;;;;;;;;;;;;
2019/11/12 19:11:43;;;;;;;10.1;8.2;;;;;;;;;;;;;